Detall de PIREP

Printer-friendly versionPDF version

[2015/12/20 16:03:00]
Flight IATA:CT1004
Pilot Number:012
Company ICAO:CAT
Aircraft Type:B463/A
PAX:100
Aircraft Registration:PAX
Departing Airport: EGLC
Destination Airport: LEDA
Alternate Airport:LEBL
Online: VATSIM
Route:LYD UM189 DRAKE UL151 SITET UN859 BALAN UL152 MAKOX UN860 GRAUS G23 ALOSU
Flight Level:F290
No Slew and time accel
No pause
Crash detect
Detect pilot in Cockpit between each 30 and 45 minutes
16:03 Zero fuel Weight: 74597 Lbs, Fuel Weight: 20650 Lbs
16:03 VATSIM:EGLC 201550Z 23008KT 190V260 9999 -SHRA FEW024 12/09 Q1012
16:03 VATSIM:LEDA 201530Z 07009KT 9999 BKN017 13/09 Q1024
16:04 X-MAS CHARTER
16:05 Parking Brakes off
16:11 Take-off
16:11 Take off Weight: 94785 Lbs
16:11 Wind: 212º @ 008 Knots Heading: 270º
16:11 POS N51º 30´ 20´´ E000º 02´ 40´´
16:11 Gear Up: 141 Knots
16:11 Flaps:2 at 141 Knots
16:12 Flaps:1 at 167 Knots
16:12 Flaps:0 at 170 Knots
16:26 Wind:216º@104 Knots Heading: 195º Ground Speed: 307 Knots Altitude 25672 ft
16:27 TOC
16:27 Fuel Weight: 17866 Lb
16:41 Wind:214º@104 Knots Heading: 180º Ground Speed: 324 Knots Altitude 29071 ft
16:56 Wind:218º@115 Knots Heading: 182º Ground Speed: 331 Knots Altitude 29179 ft
17:11 Wind:215º@091 Knots Heading: 188º Ground Speed: 338 Knots Altitude 29222 ft
17:26 Wind:216º@096 Knots Heading: 189º Ground Speed: 342 Knots Altitude 29265 ft
17:41 Wind:218º@083 Knots Heading: 188º Ground Speed: 355 Knots Altitude 29284 ft
17:49 TOD
17:49 Fuel Weight: 9988 Lb
17:56 Wind:212º@049 Knots Heading: 192º Ground Speed: 323 Knots Altitude 18566 ft
18:07 Gear Down: 202 Knots
18:08 Flaps:1 at 177 Knots
18:09 Flaps:2 at 159 Knots
18:09 Flaps:3 at 129 Knots
18:09 Flaps:4 at 139 Knots
18:11 Wind:336º@001 Knots Heading: 310º Ground Speed: 130 Knots Altitude 2529 ft
18:13 TouchDown:Rate -142 ft/min Speed: 115 Knots
18:13 VATSIM:LEDA 201530Z 07009KT 9999 BKN017 13/09 Q1024
18:13 Land
18:13 Wind:336º@001 Knots
18:13 Heading: 323º
18:13 Flight Duration: 02:02
18:13 Landing Weight: 83275 Lbs
18:13 POS N41º 43´ 54´´ E000º 31´ 49´´
18:16 Parking brakes on
18:16 Block to Block Duration: 02:11
18:16 Final Fuel: 8562 Lbls
18:16 Spent Fuel: 12087 Lbls
18:16 Flight Length: 630 NM
18:16 TOD Land Length: 101 NM

Exportar CSV

Powered by Drupal - Modified by Danger4k